Time;durP1;ratioP1;P1;durP2;ratioP2;P2;SDS_P1;SDS_P2;PMS_P1;PMS_P2;Temp;Humidity;BMP_temperature;BMP_pressure;BME280_temperature;BME280_humidity;BME280_pressure;Samples;Min_cycle;Max_cycle;Signal;HPM_P1;HPM_P2
2021/12/15 00:00:11;;;;;;;5.20;2.90;;;20.00;53.30;;;;;;2278059;63;20238;-64
2021/12/15 00:02:37;;;;;;;6.53;3.25;;;20.00;53.30;;;;;;2278174;63;20170;-64
2021/12/15 00:05:06;;;;;;;7.18;3.30;;;20.00;53.30;;;;;;2278048;63;20192;-64
2021/12/15 00:07:33;;;;;;;5.50;3.00;;;20.00;53.30;;;;;;2278119;63;20175;-64
2021/12/15 00:09:58;;;;;;;6.15;3.08;;;19.80;53.20;;;;;;2278366;63;20243;-64
2021/12/15 00:12:25;;;;;;;6.38;3.00;;;19.90;53.30;;;;;;2278117;63;20257;-64
2021/12/15 00:14:52;;;;;;;6.13;3.20;;;19.90;53.20;;;;;;2278093;63;20170;-64
2021/12/15 00:17:19;;;;;;;5.32;3.15;;;19.90;53.20;;;;;;2278069;63;20319;-65
2021/12/15 00:19:46;;;;;;;5.82;3.30;;;19.90;53.20;;;;;;2277933;63;20180;-64
2021/12/15 00:22:12;;;;;;;4.53;2.65;;;19.90;53.20;;;;;;2278004;63;20159;-64
2021/12/15 00:24:38;;;;;;;5.82;3.00;;;19.90;53.30;;;;;;2278045;63;20691;-64
2021/12/15 00:27:04;;;;;;;5.38;2.95;;;19.90;53.20;;;;;;2278039;63;20167;-64
2021/12/15 00:29:31;;;;;;;4.22;3.00;;;19.90;53.30;;;;;;2277940;63;20323;-65
2021/12/15 00:31:58;;;;;;;7.60;3.30;;;19.80;53.20;;;;;;2277996;63;20669;-64
2021/12/15 00:34:24;;;;;;;4.22;2.67;;;19.80;53.20;;;;;;2277948;63;20304;-65
2021/12/15 00:36:50;;;;;;;5.38;2.90;;;19.80;53.30;;;;;;2277996;63;20171;-65
2021/12/15 00:39:20;;;;;;;7.00;3.22;;;19.80;53.30;;;;;;2277942;63;20276;-64
2021/12/15 00:41:48;;;;;;;6.53;3.25;;;19.70;53.20;;;;;;2277974;63;20256;-65
2021/12/15 00:44:14;;;;;;;5.32;3.65;;;19.80;53.30;;;;;;2277934;63;20180;-64
2021/12/15 00:46:41;;;;;;;5.38;2.90;;;19.80;53.30;;;;;;2277930;63;20188;-65
2021/12/15 00:49:07;;;;;;;4.90;2.97;;;19.80;53.30;;;;;;2277949;63;20181;-64
2021/12/15 00:51:36;;;;;;;6.50;3.05;;;19.80;53.30;;;;;;2277921;63;20214;-65
2021/12/15 00:54:04;;;;;;;5.75;3.00;;;19.80;53.30;;;;;;2277909;63;20251;-64
2021/12/15 00:56:30;;;;;;;6.63;3.05;;;19.80;53.30;;;;;;2277909;63;20222;-65
2021/12/15 00:58:56;;;;;;;5.03;2.80;;;19.80;53.30;;;;;;2277754;63;20536;-64
2021/12/15 01:01:23;;;;;;;5.38;3.00;;;19.80;53.30;;;;;;2277798;63;20396;-64
2021/12/15 01:03:50;;;;;;;5.00;2.78;;;19.80;53.30;;;;;;2277822;63;20232;-65
2021/12/15 01:06:20;;;;;;;4.78;2.95;;;19.70;53.30;;;;;;2278274;62;20184;-64
2021/12/15 01:08:54;;;;;;;4.90;2.72;;;19.70;53.30;;;;;;2279200;62;20184;-65
2021/12/15 01:11:53;;;;;;;5.22;2.70;;;19.70;53.30;;;;;;2279131;62;20326;-64
2021/12/15 01:19:53;;;;;;;6.15;3.28;;;19.70;53.30;;;;;;2279030;62;20170;-64
2021/12/15 01:22:38;;;;;;;6.05;2.95;;;19.70;53.30;;;;;;2279056;62;20827;-64
2021/12/15 01:25:26;;;;;;;3.95;2.70;;;19.70;53.20;;;;;;2279093;62;20196;-64
2021/12/15 01:27:53;;;;;;;4.68;2.92;;;19.70;53.30;;;;;;2278946;62;20159;-64
2021/12/15 01:30:23;;;;;;;5.55;3.10;;;19.70;53.30;;;;;;2278957;62;20210;-64
2021/12/15 01:32:49;;;;;;;4.55;2.80;;;19.70;53.30;;;;;;2279036;62;20227;-65
2021/12/15 01:35:16;;;;;;;3.78;3.00;;;19.60;53.20;;;;;;2278879;62;20184;-65
2021/12/15 01:37:44;;;;;;;5.10;2.95;;;19.60;53.20;;;;;;2278984;62;20564;-64
2021/12/15 01:40:19;;;;;;;7.65;2.90;;;19.70;53.20;;;;;;2278909;62;20672;-65
2021/12/15 01:42:45;;;;;;;4.82;2.95;;;19.70;53.20;;;;;;2279001;62;20653;-65
2021/12/15 01:48:10;;;;;;;4.40;2.70;;;19.70;53.20;;;;;;2278946;62;20273;-65
2021/12/15 01:50:36;;;;;;;5.47;2.72;;;19.70;53.20;;;;;;2278858;62;20246;-65
2021/12/15 01:53:04;;;;;;;4.90;3.13;;;19.60;53.20;;;;;;2278910;62;20174;-65
2021/12/15 01:55:31;;;;;;;3.70;2.65;;;19.60;53.20;;;;;;2278928;62;20190;-65
2021/12/15 01:57:57;;;;;;;3.67;2.70;;;19.60;53.20;;;;;;2278832;62;20178;-65
2021/12/15 02:00:34;;;;;;;5.20;2.70;;;19.70;53.20;;;;;;2269962;63;20582;-66
2021/12/15 02:03:01;;;;;;;4.88;2.47;;;19.60;53.10;;;;;;2275723;62;20166;-65
2021/12/15 02:05:29;;;;;;;5.20;2.80;;;19.70;53.20;;;;;;2278850;62;20343;-64
2021/12/15 02:07:56;;;;;;;4.53;2.78;;;19.60;53.10;;;;;;2278811;62;20755;-65
2021/12/15 02:10:25;;;;;;;4.35;2.70;;;19.60;53.10;;;;;;2278828;62;20194;-65
2021/12/15 02:12:51;;;;;;;6.38;3.05;;;19.60;53.10;;;;;;2278853;62;20323;-65
2021/12/15 02:15:30;;;;;;;4.63;2.92;;;19.60;53.10;;;;;;2278795;62;20256;-64
2021/12/15 02:17:57;;;;;;;6.13;3.17;;;19.60;53.00;;;;;;2278803;62;20174;-65
2021/12/15 02:21:07;;;;;;;6.20;3.08;;;19.60;53.10;;;;;;2278722;62;20271;-64
2021/12/15 02:23:39;;;;;;;5.18;3.20;;;19.60;53.00;;;;;;2278909;62;20178;-64
2021/12/15 02:26:12;;;;;;;4.65;2.78;;;19.60;53.10;;;;;;2278756;62;20175;-65
2021/12/15 02:28:39;;;;;;;6.18;3.00;;;19.60;53.10;;;;;;2278679;62;20306;-65
2021/12/15 02:39:05;;;;;;;4.40;2.75;;;19.60;53.00;;;;;;2278604;62;20203;-65
2021/12/15 02:41:31;;;;;;;4.60;2.88;;;19.60;53.10;;;;;;2278668;62;20587;-65
2021/12/15 02:44:05;;;;;;;3.85;2.88;;;19.60;53.10;;;;;;2278713;62;20246;-64
2021/12/15 02:46:33;;;;;;;5.25;3.22;;;19.60;53.00;;;;;;2278673;62;20178;-65
2021/12/15 02:49:00;;;;;;;4.32;2.90;;;19.60;53.00;;;;;;2278637;62;20185;-65
2021/12/15 02:51:27;;;;;;;4.72;3.10;;;19.50;53.00;;;;;;2278643;62;20178;-65
2021/12/15 02:53:54;;;;;;;3.92;2.30;;;19.60;53.00;;;;;;2278618;62;20333;-65
2021/12/15 02:56:20;;;;;;;5.82;3.08;;;19.60;53.00;;;;;;2278575;62;20178;-65
2021/12/15 02:58:53;;;;;;;5.32;3.17;;;19.60;53.00;;;;;;2278472;62;20730;-64
2021/12/15 03:01:34;;;;;;;5.20;3.20;;;19.60;53.00;;;;;;2278435;62;20209;-65
2021/12/15 03:07:18;;;;;;;5.40;3.20;;;19.60;53.00;;;;;;2248010;63;20169;-65
2021/12/15 03:17:56;;;;;;;5.95;3.17;;;19.60;53.00;;;;;;2278424;62;20248;-64
2021/12/15 03:20:22;;;;;;;4.25;2.88;;;19.60;53.00;;;;;;2278359;62;20154;-65
2021/12/15 03:22:50;;;;;;;4.93;2.83;;;19.60;53.00;;;;;;2278441;62;20313;-64
2021/12/15 03:25:17;;;;;;;4.28;2.70;;;19.60;53.00;;;;;;2278416;62;20376;-63
2021/12/15 03:36:22;;;;;;;5.50;3.10;;;19.50;52.90;;;;;;2278329;62;20242;-63
2021/12/15 03:38:47;;;;;;;4.47;2.78;;;19.50;53.50;;;;;;2278326;62;20710;-63
2021/12/15 03:41:13;;;;;;;4.72;3.10;;;19.50;52.90;;;;;;2278272;62;20163;-64
2021/12/15 03:43:39;;;;;;;4.43;2.58;;;19.50;52.90;;;;;;2278317;62;20755;-64
2021/12/15 03:46:13;;;;;;;4.97;3.00;;;19.50;52.90;;;;;;2278338;62;20189;-63
2021/12/15 03:48:42;;;;;;;5.43;2.80;;;19.50;53.50;;;;;;2278253;62;20726;-64
2021/12/15 03:51:10;;;;;;;5.70;3.05;;;19.50;53.00;;;;;;2278325;62;20332;-65
2021/12/15 03:53:36;;;;;;;4.30;2.80;;;19.50;52.90;;;;;;2278269;62;20780;-64
2021/12/15 03:56:03;;;;;;;5.05;3.42;;;19.40;52.90;;;;;;2278215;62;20225;-64
2021/12/15 03:58:29;;;;;;;4.25;2.72;;;19.50;52.90;;;;;;2278096;62;20576;-65
2021/12/15 04:01:01;;;;;;;5.57;3.15;;;19.50;52.90;;;;;;2278001;63;20255;-65
2021/12/15 04:03:30;;;;;;;4.55;3.08;;;19.50;52.90;;;;;;2278146;63;20275;-64
2021/12/15 04:06:00;;;;;;;4.47;3.28;;;19.50;52.90;;;;;;2278117;63;20178;-64
2021/12/15 04:08:27;;;;;;;4.13;2.95;;;19.40;52.80;;;;;;2278190;63;20159;-64
2021/12/15 04:10:53;;;;;;;3.60;3.15;;;19.50;52.90;;;;;;2278132;63;20194;-65
2021/12/15 04:13:19;;;;;;;5.10;2.70;;;19.50;52.90;;;;;;2278120;63;20182;-64
2021/12/15 04:15:54;;;;;;;5.75;3.63;;;19.40;52.80;;;;;;2278081;63;20188;-64
2021/12/15 04:18:21;;;;;;;5.35;3.83;;;19.50;52.90;;;;;;2278078;63;20276;-64
2021/12/15 04:20:48;;;;;;;7.85;3.85;;;19.30;52.80;;;;;;2278005;63;20192;-65
2021/12/15 04:23:19;;;;;;;4.13;3.42;;;19.50;52.90;;;;;;2278091;63;20807;-64
2021/12/15 04:25:50;;;;;;;4.53;3.60;;;19.50;52.90;;;;;;2278099;63;20158;-64
2021/12/15 04:28:29;;;;;;;4.60;3.30;;;19.40;52.80;;;;;;2277990;63;20174;-64
2021/12/15 04:30:57;;;;;;;4.60;3.25;;;19.40;52.80;;;;;;2278015;63;20212;-64
2021/12/15 04:33:32;;;;;;;5.80;3.30;;;19.40;52.90;;;;;;2278021;63;20175;-64
2021/12/15 04:36:01;;;;;;;6.00;3.70;;;19.40;52.80;;;;;;2277976;63;20178;-64
2021/12/15 04:38:29;;;;;;;5.10;3.63;;;19.50;52.90;;;;;;2277982;63;20209;-64
2021/12/15 04:40:56;;;;;;;6.03;3.40;;;19.40;52.90;;;;;;2278122;62;20565;-64
2021/12/15 04:43:22;;;;;;;6.78;3.47;;;19.40;52.90;;;;;;2279337;62;20319;-64
2021/12/15 04:45:49;;;;;;;5.05;3.22;;;19.40;52.80;;;;;;2279322;62;20680;-64
2021/12/15 04:48:15;;;;;;;5.10;3.38;;;19.40;52.80;;;;;;2279276;62;20269;-64
2021/12/15 04:50:41;;;;;;;5.95;4.00;;;19.40;52.80;;;;;;2279222;62;20174;-64
2021/12/15 04:53:08;;;;;;;5.25;3.40;;;19.40;52.80;;;;;;2279237;62;20192;-64
2021/12/15 04:55:36;;;;;;;4.95;3.42;;;19.40;52.80;;;;;;2279241;62;20528;-64
2021/12/15 04:58:04;;;;;;;3.83;3.20;;;19.40;52.80;;;;;;2279144;62;20399;-64
2021/12/15 05:00:33;;;;;;;4.60;3.78;;;19.50;52.90;;;;;;2279097;62;20631;-64
2021/12/15 05:03:00;;;;;;;5.80;4.10;;;19.40;52.80;;;;;;2279180;62;20186;-64
2021/12/15 05:05:28;;;;;;;4.93;3.50;;;19.40;52.80;;;;;;2279177;62;20162;-64
2021/12/15 05:07:54;;;;;;;4.38;3.17;;;19.40;52.80;;;;;;2279218;62;20218;-65
2021/12/15 05:10:21;;;;;;;5.47;3.60;;;19.40;52.80;;;;;;2279141;62;20250;-64
2021/12/15 05:12:47;;;;;;;5.30;3.70;;;19.40;52.80;;;;;;2279191;62;20209;-65
2021/12/15 05:15:13;;;;;;;4.53;3.40;;;19.40;52.80;;;;;;2279183;62;20162;-65
2021/12/15 05:17:40;;;;;;;5.80;3.70;;;19.40;52.80;;;;;;2279171;62;20193;-65
2021/12/15 05:20:08;;;;;;;5.53;3.33;;;19.40;52.80;;;;;;2279053;62;20162;-64
2021/12/15 05:22:36;;;;;;;6.40;3.40;;;19.40;52.80;;;;;;2279167;62;20191;-65
2021/12/15 05:25:06;;;;;;;4.75;3.25;;;19.40;52.80;;;;;;2279078;62;20163;-67
2021/12/15 05:27:32;;;;;;;4.90;3.42;;;19.40;52.80;;;;;;2279105;62;20307;-67
2021/12/15 05:29:58;;;;;;;4.50;3.65;;;19.40;52.80;;;;;;2279051;62;20260;-66
2021/12/15 05:32:25;;;;;;;6.05;3.53;;;19.40;52.80;;;;;;2279077;62;20175;-65
2021/12/15 05:34:54;;;;;;;4.80;3.67;;;19.40;52.80;;;;;;2279013;62;20214;-66
2021/12/15 05:37:22;;;;;;;5.93;4.53;;;19.40;52.80;;;;;;2279106;62;20652;-67
2021/12/15 05:39:50;;;;;;;5.82;3.83;;;19.40;52.80;;;;;;2279024;62;20159;-66
2021/12/15 05:42:18;;;;;;;4.50;3.78;;;19.30;52.70;;;;;;2279049;62;20190;-65
2021/12/15 05:44:45;;;;;;;5.97;4.03;;;19.40;52.80;;;;;;2279005;62;20166;-65
2021/12/15 05:47:12;;;;;;;6.95;4.28;;;19.40;53.40;;;;;;2278953;62;20182;-65
2021/12/15 05:49:38;;;;;;;6.00;3.88;;;19.40;52.80;;;;;;2278899;62;20166;-63
2021/12/15 05:52:05;;;;;;;5.38;4.25;;;19.50;52.80;;;;;;2278726;62;20669;-63
2021/12/15 05:54:31;;;;;;;6.70;4.13;;;19.50;52.80;;;;;;2278846;62;20625;-64
2021/12/15 05:56:57;;;;;;;5.35;4.07;;;19.60;52.70;;;;;;2278904;62;20320;-64
2021/12/15 05:59:24;;;;;;;5.13;3.60;;;19.70;52.70;;;;;;2278759;62;20162;-64
2021/12/15 06:01:50;;;;;;;6.57;3.63;;;19.80;52.60;;;;;;2278761;62;20188;-65
2021/12/15 06:04:17;;;;;;;4.03;2.92;;;19.90;52.40;;;;;;2278777;62;20190;-64
2021/12/15 06:06:43;;;;;;;4.47;3.05;;;20.00;52.30;;;;;;2278811;62;20282;-63
2021/12/15 06:09:10;;;;;;;4.93;3.00;;;20.10;52.20;;;;;;2278852;62;20197;-64
2021/12/15 06:11:37;;;;;;;5.90;3.30;;;20.20;52.00;;;;;;2278823;62;20201;-63
2021/12/15 06:14:05;;;;;;;4.43;3.17;;;20.30;51.90;;;;;;2278852;62;20162;-64
2021/12/15 06:16:32;;;;;;;5.72;3.67;;;20.30;51.80;;;;;;2278786;62;20179;-64
2021/12/15 06:19:02;;;;;;;6.05;3.83;;;20.40;51.80;;;;;;2278795;62;20234;-64
2021/12/15 06:21:28;;;;;;;5.18;3.65;;;20.40;51.70;;;;;;2278767;62;20179;-63
2021/12/15 06:24:06;;;;;;;4.25;3.67;;;20.40;51.70;;;;;;2278764;62;20174;-65
2021/12/15 06:26:34;;;;;;;4.45;3.40;;;20.40;51.70;;;;;;2278764;62;20184;-65
2021/12/15 06:29:00;;;;;;;5.03;3.63;;;20.40;51.60;;;;;;2278641;62;20259;-64
2021/12/15 06:31:26;;;;;;;5.25;3.72;;;20.40;51.60;;;;;;2278718;62;20266;-64
2021/12/15 06:33:52;;;;;;;5.15;3.67;;;20.40;51.60;;;;;;2278736;62;20193;-65
2021/12/15 06:36:21;;;;;;;4.80;3.08;;;20.50;51.60;;;;;;2278632;62;20546;-65
2021/12/15 06:38:53;;;;;;;5.57;3.65;;;20.50;51.50;;;;;;2278677;62;20669;-65
2021/12/15 06:41:20;;;;;;;5.57;4.03;;;20.50;52.10;;;;;;2278637;62;20727;-65
2021/12/15 06:43:50;;;;;;;4.68;3.20;;;20.50;51.40;;;;;;2278695;62;20292;-65
2021/12/15 06:58:10;;;;;;;5.25;3.72;;;20.50;51.40;;;;;;2278592;62;20260;-65
2021/12/15 07:00:18;;;;;;;6.13;4.32;;;20.50;51.40;;;;;;2278460;62;20175;-65
2021/12/15 07:02:44;;;;;;;7.05;4.70;;;20.50;51.40;;;;;;2278559;62;20166;-65
2021/12/15 07:05:11;;;;;;;7.00;4.18;;;20.40;51.40;;;;;;2278100;62;20196;-66
2021/12/15 07:07:40;;;;;;;8.45;4.53;;;20.40;51.40;;;;;;2278485;62;20163;-66
2021/12/15 07:10:08;;;;;;;11.48;5.05;;;20.40;51.50;;;;;;2278711;62;20271;-65
2021/12/15 07:12:34;;;;;;;12.02;5.05;;;20.40;51.50;;;;;;2278841;62;20629;-65
